Time;durP1;ratioP1;P1;durP2;ratioP2;P2;SDS_P1;SDS_P2;PMS_P1;PMS_P2;Temp;Humidity;BMP_temperature;BMP_pressure;BME280_temperature;BME280_humidity;BME280_pressure;Samples;Min_cycle;Max_cycle;Signal;HPM_P1;HPM_P2
2023/12/22 00:00:10;;;;;;;;;;;;;;;;;;5114741;28;19993;-42
2023/12/22 00:02:36;;;;;;;;;;;;;;;;;;5115020;28;19984;-42
2023/12/22 00:05:02;;;;;;;;;;;;;;;;;;5115421;27;19924;-42
2023/12/22 00:07:28;;;;;;;;;;;;;;;;;;5114869;28;19934;-41
2023/12/22 00:09:55;;;;;;;;;;;;;;;;;;5114880;28;19989;-43
2023/12/22 00:12:21;;;;;;;;;;;;;;;;;;5115199;28;19972;-42
2023/12/22 00:14:47;;;;;;;;;;;;;;;;;;5115096;28;19927;-43
2023/12/22 00:17:13;;;;;;;;;;;;;;;;;;5115606;28;20271;-42
2023/12/22 00:19:40;;;;;;;;;;;;;;;;;;5115154;27;20315;-41
2023/12/22 00:22:06;;;;;;;;;;;;;;;;;;5115248;28;20391;-41
2023/12/22 00:24:32;;;;;;;;;;;;;;;;;;5115513;28;19969;-41
2023/12/22 00:26:59;;;;;;;;;;;;;;;;;;5114364;28;20342;-44
2023/12/22 00:29:25;;;;;;;;;;;;;;;;;;5114393;28;19931;-43
2023/12/22 00:31:51;;;;;;;;;;;;;;;;;;5115143;28;19949;-43
2023/12/22 00:34:19;;;;;;;;;;;;;;;;;;5115421;28;19935;-41
2023/12/22 00:36:45;;;;;;;;;;;;;;;;;;5115185;28;19923;-43
2023/12/22 00:39:11;;;;;;;;;;;;;;;;;;5114729;28;19949;-44
2023/12/22 00:41:37;;;;;;;;;;;;;;;;;;5115188;28;19972;-44
2023/12/22 00:44:03;;;;;;;;;;;;;;;;;;5115194;28;19923;-43
2023/12/22 00:46:30;;;;;;;;;;;;;;;;;;5115028;28;19927;-42
2023/12/22 00:48:56;;;;;;;;;;;;;;;;;;5115278;28;19931;-42
2023/12/22 00:51:22;;;;;;;;;;;;;;;;;;5114977;28;19930;-45
2023/12/22 00:53:48;;;;;;;;;;;;;;;;;;5114862;28;19924;-43
2023/12/22 00:56:14;;;;;;;;;;;;;;;;;;5114312;28;19967;-41
2023/12/22 00:58:40;;;;;;;;;;;;;;;;;;5114511;28;20079;-44
2023/12/22 01:01:07;;;;;;;;;;;;;;;;;;5114607;28;20023;-43
2023/12/22 01:03:33;;;;;;;;;;;;;;;;;;5114684;28;19924;-41
2023/12/22 01:05:59;;;;;;;;;;;;;;;;;;5114556;28;20299;-42
2023/12/22 01:08:25;;;;;;;;;;;;;;;;;;5114723;28;19930;-41
2023/12/22 01:10:52;;;;;;;;;;;;;;;;;;5114461;28;19974;-41
2023/12/22 01:13:18;;;;;;;;;;;;;;;;;;5114729;28;19931;-43
2023/12/22 01:15:44;;;;;;;;;;;;;;;;;;5114165;28;20279;-44
2023/12/22 01:18:10;;;;;;;;;;;;;;;;;;5114720;28;19948;-44
2023/12/22 01:20:36;;;;;;;;;;;;;;;;;;5113989;28;19930;-44
2023/12/22 01:23:02;;;;;;;;;;;;;;;;;;5114044;27;19958;-42
2023/12/22 01:25:29;;;;;;;;;;;;;;;;;;5113749;28;20382;-43
2023/12/22 01:27:55;;;;;;;;;;;;;;;;;;5114084;28;19931;-42
2023/12/22 01:30:21;;;;;;;;;;;;;;;;;;5113746;28;20007;-44
2023/12/22 01:32:47;;;;;;;;;;;;;;;;;;5114114;28;19977;-41
2023/12/22 01:35:14;;;;;;;;;;;;;;;;;;5114190;28;19923;-43
2023/12/22 01:37:40;;;;;;;;;;;;;;;;;;5114120;28;19932;-41
2023/12/22 01:40:06;;;;;;;;;;;;;;;;;;5113882;28;20370;-42
2023/12/22 01:42:32;;;;;;;;;;;;;;;;;;5114219;28;19969;-41
2023/12/22 01:44:59;;;;;;;;;;;;;;;;;;5113829;28;19924;-44
2023/12/22 01:47:25;;;;;;;;;;;;;;;;;;5113855;28;19923;-41
2023/12/22 01:49:52;;;;;;;;;;;;;;;;;;5113906;28;19973;-41
2023/12/22 01:52:18;;;;;;;;;;;;;;;;;;5113711;28;19924;-42
2023/12/22 01:54:44;;;;;;;;;;;;;;;;;;5113671;28;19969;-42
2023/12/22 01:57:10;;;;;;;;;;;;;;;;;;5113200;28;19928;-45
2023/12/22 01:59:36;;;;;;;;;;;;;;;;;;5113773;28;19924;-41
2023/12/22 02:02:02;;;;;;;;;;;;;;;;;;5113504;28;19924;-43
2023/12/22 02:04:28;;;;;;;;;;;;;;;;;;5113785;28;19995;-44
2023/12/22 02:06:55;;;;;;;;;;;;;;;;;;5113423;28;19924;-41
2023/12/22 02:09:21;;;;;;;;;;;;;;;;;;5113169;28;19923;-42
2023/12/22 02:11:47;;;;;;;;;;;;;;;;;;5113489;28;19923;-44
2023/12/22 02:14:13;;;;;;;;;;;;;;;;;;5113730;28;19969;-44
2023/12/22 02:16:39;;;;;;;;;;;;;;;;;;5113356;28;19927;-43
2023/12/22 02:19:05;;;;;;;;;;;;;;;;;;5113613;28;20366;-43
2023/12/22 02:21:31;;;;;;;;;;;;;;;;;;5113399;28;19923;-42
2023/12/22 02:24:00;;;;;;;;;;;;;;;;;;5113455;28;20191;-43
2023/12/22 02:26:26;;;;;;;;;;;;;;;;;;5112492;28;19923;-42
2023/12/22 02:28:52;;;;;;;;;;;;;;;;;;5113503;28;20363;-41
2023/12/22 02:31:18;;;;;;;;;;;;;;;;;;5112699;28;19924;-43
2023/12/22 02:33:45;;;;;;;;;;;;;;;;;;5113325;28;19923;-41
2023/12/22 02:36:11;;;;;;;;;;;;;;;;;;5113229;28;19928;-43
2023/12/22 02:38:37;;;;;;;;;;;;;;;;;;5113224;28;19924;-43
2023/12/22 02:41:03;;;;;;;;;;;;;;;;;;5113191;28;19923;-44
2023/12/22 02:43:29;;;;;;;;;;;;;;;;;;5113246;28;20248;-41
2023/12/22 02:45:55;;;;;;;;;;;;;;;;;;5113170;28;19923;-41
2023/12/22 02:48:21;;;;;;;;;;;;;;;;;;5113244;28;19923;-43
2023/12/22 02:50:48;;;;;;;;;;;;;;;;;;5112761;28;19984;-42
2023/12/22 02:53:14;;;;;;;;;;;;;;;;;;5113089;28;19924;-43
2023/12/22 02:55:40;;;;;;;;;;;;;;;;;;5113023;28;19953;-43
2023/12/22 02:58:06;;;;;;;;;;;;;;;;;;5113075;28;19927;-42
2023/12/22 03:00:32;;;;;;;;;;;;;;;;;;5112777;28;20063;-42
2023/12/22 03:02:58;;;;;;;;;;;;;;;;;;5113113;28;20428;-41
2023/12/22 03:05:25;;;;;;;;;;;;;;;;;;5113088;28;19950;-42
2023/12/22 03:07:51;;;;;;;;;;;;;;;;;;5113017;28;20293;-45
2023/12/22 03:10:17;;;;;;;;;;;;;;;;;;5112664;28;20395;-42
2023/12/22 03:12:43;;;;;;;;;;;;;;;;;;5112865;28;19978;-42
2023/12/22 03:15:09;;;;;;;;;;;;;;;;;;5112250;28;19924;-41
2023/12/22 03:17:36;;;;;;;;;;;;;;;;;;5112694;28;19949;-42
2023/12/22 03:20:02;;;;;;;;;;;;;;;;;;5114246;28;19924;-42
2023/12/22 03:22:28;;;;;;;;;;;;;;;;;;5116495;28;20381;-41
2023/12/22 03:24:54;;;;;;;;;;;;;;;;;;5116237;28;19924;-41
2023/12/22 03:27:21;;;;;;;;;;;;;;;;;;5115511;28;19924;-42
2023/12/22 03:29:47;;;;;;;;;;;;;;;;;;5116127;28;19950;-42
2023/12/22 03:32:13;;;;;;;;;;;;;;;;;;5114945;28;19932;-41
2023/12/22 03:34:39;;;;;;;;;;;;;;;;;;5115259;28;19969;-43
2023/12/22 03:37:05;;;;;;;;;;;;;;;;;;5115376;28;19931;-43
2023/12/22 03:39:31;;;;;;;;;;;;;;;;;;5115385;28;19923;-42
2023/12/22 03:41:59;;;;;;;;;;;;;;;;;;5115451;27;19935;-44
2023/12/22 03:44:25;;;;;;;;;;;;;;;;;;5115397;27;19966;-42
2023/12/22 03:46:51;;;;;;;;;;;;;;;;;;5115309;28;19923;-42
2023/12/22 03:49:19;;;;;;;;;;;;;;;;;;5115014;28;20320;-42
2023/12/22 03:51:45;;;;;;;;;;;;;;;;;;5115247;28;19930;-43
2023/12/22 03:54:11;;;;;;;;;;;;;;;;;;5115837;28;19928;-43
2023/12/22 03:56:38;;;;;;;;;;;;;;;;;;5115727;28;19967;-41
2023/12/22 03:59:04;;;;;;;;;;;;;;;;;;5116195;28;19977;-44
2023/12/22 04:01:30;;;;;;;;;;;;;;;;;;5115423;27;19981;-42
2023/12/22 04:03:56;;;;;;;;;;;;;;;;;;5115944;28;19930;-44
2023/12/22 04:06:22;;;;;;;;;;;;;;;;;;5115994;28;19924;-40
2023/12/22 04:08:48;;;;;;;;;;;;;;;;;;5115070;28;19977;-41
2023/12/22 04:11:14;;;;;;;;;;;;;;;;;;5115746;28;19924;-41
2023/12/22 04:13:41;;;;;;;;;;;;;;;;;;5115080;28;19966;-41
2023/12/22 04:16:07;;;;;;;;;;;;;;;;;;5114616;28;20011;-41
2023/12/22 04:18:33;;;;;;;;;;;;;;;;;;5115884;28;19924;-43
2023/12/22 04:20:59;;;;;;;;;;;;;;;;;;5114978;28;19924;-42
2023/12/22 04:23:25;;;;;;;;;;;;;;;;;;5115363;28;20386;-42
2023/12/22 04:25:52;;;;;;;;;;;;;;;;;;5115133;27;20408;-42
2023/12/22 04:28:18;;;;;;;;;;;;;;;;;;5114859;28;19923;-42
2023/12/22 04:30:44;;;;;;;;;;;;;;;;;;5113229;28;19927;-43
2023/12/22 04:33:10;;;;;;;;;;;;;;;;;;5114760;28;19959;-42
2023/12/22 04:35:37;;;;;;;;;;;;;;;;;;5114303;28;19930;-41
2023/12/22 04:38:03;;;;;;;;;;;;;;;;;;5114786;28;20467;-41
2023/12/22 04:40:29;;;;;;;;;;;;;;;;;;5114170;28;19954;-41
2023/12/22 04:42:55;;;;;;;;;;;;;;;;;;5115115;28;19931;-42
2023/12/22 04:45:21;;;;;;;;;;;;;;;;;;5114517;28;19956;-42
2023/12/22 04:47:48;;;;;;;;;;;;;;;;;;5114655;28;20019;-44
2023/12/22 04:50:14;;;;;;;;;;;;;;;;;;5114730;28;20018;-42
2023/12/22 04:52:40;;;;;;;;;;;;;;;;;;5114568;28;20456;-42
2023/12/22 04:55:06;;;;;;;;;;;;;;;;;;5114133;28;19923;-41
2023/12/22 04:57:33;;;;;;;;;;;;;;;;;;5114329;28;19931;-41
2023/12/22 04:59:59;;;;;;;;;;;;;;;;;;5113953;28;20333;-42
2023/12/22 05:02:25;;;;;;;;;;;;;;;;;;5114060;28;20268;-43
2023/12/22 05:04:51;;;;;;;;;;;;;;;;;;5114673;28;19968;-42
2023/12/22 05:07:17;;;;;;;;;;;;;;;;;;5114241;28;19930;-42
2023/12/22 05:09:43;;;;;;;;;;;;;;;;;;5114018;28;19928;-43
2023/12/22 05:12:10;;;;;;;;;;;;;;;;;;5114366;28;19924;-43
2023/12/22 05:14:36;;;;;;;;;;;;;;;;;;5114116;28;20150;-44
2023/12/22 05:17:02;;;;;;;;;;;;;;;;;;5113875;28;20135;-43
2023/12/22 05:19:28;;;;;;;;;;;;;;;;;;5114196;28;19924;-42
2023/12/22 05:21:56;;;;;;;;;;;;;;;;;;5114324;28;19923;-41
2023/12/22 05:24:22;;;;;;;;;;;;;;;;;;5114285;28;20428;-41
2023/12/22 05:26:49;;;;;;;;;;;;;;;;;;5114122;28;19996;-42
2023/12/22 05:29:15;;;;;;;;;;;;;;;;;;5114158;28;20063;-43
2023/12/22 05:31:41;;;;;;;;;;;;;;;;;;5113514;28;19931;-43
2023/12/22 05:34:10;;;;;;;;;;;;;;;;;;5114171;28;19977;-43
2023/12/22 05:36:36;;;;;;;;;;;;;;;;;;5113374;28;19923;-41
2023/12/22 05:39:02;;;;;;;;;;;;;;;;;;5113802;28;19978;-41
2023/12/22 05:41:28;;;;;;;;;;;;;;;;;;5114152;28;20337;-41
2023/12/22 05:43:54;;;;;;;;;;;;;;;;;;5113617;28;19976;-43
2023/12/22 05:46:21;;;;;;;;;;;;;;;;;;5113594;28;19930;-41
2023/12/22 05:48:47;;;;;;;;;;;;;;;;;;5113501;28;20283;-41
2023/12/22 05:51:13;;;;;;;;;;;;;;;;;;5113904;28;19931;-43
2023/12/22 05:53:41;;;;;;;;;;;;;;;;;;5112984;28;21278;-42
2023/12/22 05:56:07;;;;;;;;;;;;;;;;;;5113506;28;19931;-44
2023/12/22 05:58:34;;;;;;;;;;;;;;;;;;5113481;28;19969;-41
2023/12/22 06:01:00;;;;;;;;;;;;;;;;;;5113691;28;19973;-42
2023/12/22 06:03:26;;;;;;;;;;;;;;;;;;5113588;28;19974;-41
2023/12/22 06:05:53;;;;;;;;;;;;;;;;;;5113545;28;20337;-41
2023/12/22 06:08:19;;;;;;;;;;;;;;;;;;5113570;27;20328;-41
2023/12/22 06:10:45;;;;;;;;;;;;;;;;;;5113543;28;19931;-42
2023/12/22 06:13:11;;;;;;;;;;;;;;;;;;5113629;28;19928;-41
2023/12/22 06:15:38;;;;;;;;;;;;;;;;;;5112781;28;19924;-41
2023/12/22 06:18:04;;;;;;;;;;;;;;;;;;5112332;28;19924;-40
2023/12/22 06:20:30;;;;;;;;;;;;;;;;;;5112678;28;20037;-43
2023/12/22 06:22:56;;;;;;;;;;;;;;;;;;5112892;28;19945;-42
2023/12/22 06:25:22;;;;;;;;;;;;;;;;;;5112087;28;19931;-43
2023/12/22 06:27:48;;;;;;;;;;;;;;;;;;5112776;28;19923;-43
2023/12/22 06:30:15;;;;;;;;;;;;;;;;;;5112707;28;19927;-42
2023/12/22 06:32:41;;;;;;;;;;;;;;;;;;5110636;28;19930;-41
2023/12/22 06:35:09;;;;;;;;;;;;;;;;;;5092542;28;19924;-44
2023/12/22 06:37:37;;;;;;;;;;;;;;;;;;5097582;28;20018;-42
2023/12/22 06:40:03;;;;;;;;;;;;;;;;;;5112723;28;19931;-40
2023/12/22 06:42:29;;;;;;;;;;;;;;;;;;5111249;28;19993;-42
2023/12/22 06:44:55;;;;;;;;;;;;;;;;;;5112632;28;20288;-41
2023/12/22 06:47:21;;;;;;;;;;;;;;;;;;5113180;28;19931;-42
2023/12/22 06:49:48;;;;;;;;;;;;;;;;;;5112669;28;20341;-43
2023/12/22 06:52:14;;;;;;;;;;;;;;;;;;5113047;28;19923;-42
2023/12/22 06:54:40;;;;;;;;;;;;;;;;;;5115762;28;19924;-41
2023/12/22 06:57:06;;;;;;;;;;;;;;;;;;5116986;27;19989;-41
2023/12/22 06:59:33;;;;;;;;;;;;;;;;;;5116551;28;19948;-42
2023/12/22 07:02:00;;;;;;;;;;;;;;;;;;5116729;28;19928;-42
2023/12/22 07:04:34;;;;;;;;;;;;;;;;;;5116894;28;19924;-42
2023/12/22 07:07:01;;;;;;;;;;;;;;;;;;5116227;28;19923;-42
2023/12/22 07:09:28;;;;;;;;;;;;;;;;;;5116133;28;20276;-43
2023/12/22 07:11:54;;;;;;;;;;;;;;;;;;5116933;28;20391;-42
2023/12/22 07:14:22;;;;;;;;;;;;;;;;;;5116173;27;19985;-41
2023/12/22 07:16:49;;;;;;;;;;;;;;;;;;5116398;28;19924;-41
2023/12/22 07:19:15;;;;;;;;;;;;;;;;;;5116082;27;19923;-42
2023/12/22 07:21:41;;;;;;;;;;;;;;;;;;5116726;28;20268;-41
2023/12/22 07:24:09;;;;;;;;;;;;;;;;;;5116843;27;20347;-41
2023/12/22 07:26:36;;;;;;;;;;;;;;;;;;5116687;28;19928;-42
2023/12/22 07:29:03;;;;;;;;;;;;;;;;;;5116356;28;20019;-43
2023/12/22 07:31:29;;;;;;;;;;;;;;;;;;5116643;28;19928;-44
2023/12/22 07:33:55;;;;;;;;;;;;;;;;;;5116214;28;19927;-44
2023/12/22 07:36:21;;;;;;;;;;;;;;;;;;5115913;27;19924;-42
2023/12/22 07:38:48;;;;;;;;;;;;;;;;;;5115786;28;20018;-42
2023/12/22 07:41:14;;;;;;;;;;;;;;;;;;5115575;28;19969;-43
2023/12/22 07:43:42;;;;;;;;;;;;;;;;;;5115584;28;19969;-41
2023/12/22 07:46:09;;;;;;;;;;;;;;;;;;5115654;28;19924;-42
2023/12/22 07:48:36;;;;;;;;;;;;;;;;;;5115742;28;20383;-42
2023/12/22 07:51:02;;;;;;;;;;;;;;;;;;5115644;28;20397;-41
2023/12/22 07:53:29;;;;;;;;;;;;;;;;;;5115766;28;19946;-42
2023/12/22 07:55:55;;;;;;;;;;;;;;;;;;5115858;28;19973;-43
2023/12/22 07:58:21;;;;;;;;;;;;;;;;;;5115657;28;19928;-44
2023/12/22 08:00:48;;;;;;;;;;;;;;;;;;5116058;28;19924;-41
2023/12/22 08:03:14;;;;;;;;;;;;;;;;;;5116214;28;20003;-41
2023/12/22 08:05:40;;;;;;;;;;;;;;;;;;5115419;28;20429;-45
2023/12/22 08:08:06;;;;;;;;;;;;;;;;;;5115653;28;20276;-40
2023/12/22 08:10:33;;;;;;;;;;;;;;;;;;5115111;28;20363;-43
2023/12/22 08:12:59;;;;;;;;;;;;;;;;;;5115176;28;19924;-43
2023/12/22 08:15:25;;;;;;;;;;;;;;;;;;5114600;28;19923;-45
2023/12/22 08:17:58;;;;;;;;;;;;;;;;;;5114806;28;19924;-44
2023/12/22 08:20:24;;;;;;;;;;;;;;;;;;5115295;28;19924;-41
2023/12/22 08:22:54;;;;;;;;;;;;;;;;;;5113845;28;19934;-41
2023/12/22 08:25:22;;;;;;;;;;;;;;;;;;5115607;28;20391;-41
2023/12/22 08:27:48;;;;;;;;;;;;;;;;;;5115543;28;20263;-42
2023/12/22 08:30:15;;;;;;;;;;;;;;;;;;5114553;28;19935;-42
2023/12/22 08:32:41;;;;;;;;;;;;;;;;;;5104251;28;19924;-41
2023/12/22 08:35:07;;;;;;;;;;;;;;;;;;5115373;28;20375;-42
2023/12/22 08:37:34;;;;;;;;;;;;;;;;;;5114468;28;19932;-41
2023/12/22 08:40:00;;;;;;;;;;;;;;;;;;5114720;28;19924;-42
2023/12/22 08:42:27;;;;;;;;;;;;;;;;;;5114724;28;19977;-43
2023/12/22 08:44:53;;;;;;;;;;;;;;;;;;5113827;28;19971;-42
2023/12/22 08:47:19;;;;;;;;;;;;;;;;;;5107768;28;19985;-44
2023/12/22 08:49:45;;;;;;;;;;;;;;;;;;5094518;28;20218;-44
2023/12/22 08:52:13;;;;;;;;;;;;;;;;;;5108056;28;19930;-41
2023/12/22 08:54:39;;;;;;;;;;;;;;;;;;5115084;28;20412;-43
2023/12/22 08:57:05;;;;;;;;;;;;;;;;;;5115031;28;20001;-41
2023/12/22 08:59:31;;;;;;;;;;;;;;;;;;5114524;28;19973;-42
2023/12/22 09:01:57;;;;;;;;;;;;;;;;;;5115105;28;19928;-43
2023/12/22 09:04:24;;;;;;;;;;;;;;;;;;5114974;28;19930;-43
2023/12/22 09:06:50;;;;;;;;;;;;;;;;;;5114732;28;19939;-46
2023/12/22 09:09:16;;;;;;;;;;;;;;;;;;5112613;28;19992;-43
2023/12/22 09:11:42;;;;;;;;;;;;;;;;;;5114265;28;19923;-44
2023/12/22 09:14:09;;;;;;;;;;;;;;;;;;5114511;27;19928;-41
2023/12/22 09:16:35;;;;;;;;;;;;;;;;;;5113867;28;19971;-41
2023/12/22 09:19:01;;;;;;;;;;;;;;;;;;5113528;28;19949;-43
2023/12/22 09:21:27;;;;;;;;;;;;;;;;;;5114329;28;19931;-41
2023/12/22 09:23:54;;;;;;;;;;;;;;;;;;5114644;28;19923;-42
2023/12/22 09:26:20;;;;;;;;;;;;;;;;;;5114333;28;20299;-41
2023/12/22 09:28:46;;;;;;;;;;;;;;;;;;5114586;28;19935;-42
2023/12/22 09:31:13;;;;;;;;;;;;;;;;;;5114333;28;19923;-41
2023/12/22 09:33:40;;;;;;;;;;;;;;;;;;5114319;28;19955;-42
2023/12/22 09:36:06;;;;;;;;;;;;;;;;;;5114032;28;19924;-44
2023/12/22 09:38:32;;;;;;;;;;;;;;;;;;5113115;27;20337;-45
2023/12/22 09:40:58;;;;;;;;;;;;;;;;;;5113462;28;20268;-44
2023/12/22 09:43:25;;;;;;;;;;;;;;;;;;5113311;28;19924;-43
2023/12/22 09:45:51;;;;;;;;;;;;;;;;;;5113776;28;19931;-41
2023/12/22 09:48:17;;;;;;;;;;;;;;;;;;5113849;28;19928;-42
2023/12/22 09:50:44;;;;;;;;;;;;;;;;;;5113449;28;19927;-40
2023/12/22 09:53:11;;;;;;;;;;;;;;;;;;5113604;28;19976;-41
2023/12/22 09:55:37;;;;;;;;;;;;;;;;;;5113312;28;20306;-41
2023/12/22 09:58:03;;;;;;;;;;;;;;;;;;5113319;28;19935;-42
2023/12/22 10:00:29;;;;;;;;;;;;;;;;;;5113059;28;19923;-42
2023/12/22 10:02:55;;;;;;;;;;;;;;;;;;5113151;28;19923;-40
2023/12/22 10:05:22;;;;;;;;;;;;;;;;;;5113550;28;19931;-43
2023/12/22 10:07:48;;;;;;;;;;;;;;;;;;5113235;28;19930;-44
2023/12/22 10:10:15;;;;;;;;;;;;;;;;;;5112601;28;20019;-41
2023/12/22 10:12:41;;;;;;;;;;;;;;;;;;5113146;28;20355;-45
2023/12/22 10:15:07;;;;;;;;;;;;;;;;;;5113198;28;19963;-42
2023/12/22 10:17:33;;;;;;;;;;;;;;;;;;5112912;28;19924;-42
2023/12/22 10:19:59;;;;;;;;;;;;;;;;;;5112815;28;19973;-42
2023/12/22 10:22:25;;;;;;;;;;;;;;;;;;5113201;28;19928;-43
2023/12/22 10:24:52;;;;;;;;;;;;;;;;;;5113067;28;19924;-44
2023/12/22 10:27:25;;;;;;;;;;;;;;;;;;5113178;28;19976;-41
2023/12/22 10:29:51;;;;;;;;;;;;;;;;;;5112269;28;19927;-47
2023/12/22 10:32:17;;;;;;;;;;;;;;;;;;5112074;28;19971;-43
2023/12/22 10:34:43;;;;;;;;;;;;;;;;;;5112436;28;19924;-43
2023/12/22 10:37:10;;;;;;;;;;;;;;;;;;5112441;28;20351;-43
2023/12/22 10:39:36;;;;;;;;;;;;;;;;;;5111006;28;20260;-42
2023/12/22 10:42:02;;;;;;;;;;;;;;;;;;5112345;28;20360;-41
2023/12/22 10:44:28;;;;;;;;;;;;;;;;;;5112434;28;19931;-42
2023/12/22 10:46:54;;;;;;;;;;;;;;;;;;5112235;28;19931;-41
2023/12/22 10:49:21;;;;;;;;;;;;;;;;;;5112603;28;19930;-43
2023/12/22 10:51:47;;;;;;;;;;;;;;;;;;5112615;28;19938;-43
2023/12/22 10:54:13;;;;;;;;;;;;;;;;;;5112903;28;19924;-42
2023/12/22 10:56:39;;;;;;;;;;;;;;;;;;5112799;28;19924;-44
2023/12/22 10:59:07;;;;;;;;;;;;;;;;;;5112415;28;19928;-42
2023/12/22 11:01:33;;;;;;;;;;;;;;;;;;5112640;28;19931;-43
2023/12/22 11:03:59;;;;;;;;;;;;;;;;;;5111957;28;20432;-43
2023/12/22 11:06:26;;;;;;;;;;;;;;;;;;5112640;28;19924;-41
2023/12/22 11:08:53;;;;;;;;;;;;;;;;;;5112063;28;20124;-43
2023/12/22 11:11:19;;;;;;;;;;;;;;;;;;5112698;28;19924;-43
2023/12/22 11:13:45;;;;;;;;;;;;;;;;;;5112621;28;19932;-42
2023/12/22 11:16:11;;;;;;;;;;;;;;;;;;5112510;28;19973;-42
2023/12/22 11:18:38;;;;;;;;;;;;;;;;;;5112794;28;19928;-43
2023/12/22 11:21:04;;;;;;;;;;;;;;;;;;5112536;28;20394;-43
2023/12/22 11:23:31;;;;;;;;;;;;;;;;;;5112961;28;19928;-41
2023/12/22 11:25:57;;;;;;;;;;;;;;;;;;5113103;28;19923;-45
2023/12/22 11:28:24;;;;;;;;;;;;;;;;;;5112928;28;19924;-42
2023/12/22 11:30:52;;;;;;;;;;;;;;;;;;5112219;28;19931;-41
2023/12/22 11:33:20;;;;;;;;;;;;;;;;;;5112649;28;19924;-41
2023/12/22 11:35:47;;;;;;;;;;;;;;;;;;5112561;28;19935;-43
2023/12/22 11:38:13;;;;;;;;;;;;;;;;;;5112589;28;19928;-43
2023/12/22 11:40:39;;;;;;;;;;;;;;;;;;5112603;28;20430;-44
2023/12/22 11:43:05;;;;;;;;;;;;;;;;;;5116063;28;19931;-42
2023/12/22 11:45:31;;;;;;;;;;;;;;;;;;5116123;27;19932;-42
2023/12/22 11:47:58;;;;;;;;;;;;;;;;;;5115953;28;19976;-43
2023/12/22 11:50:24;;;;;;;;;;;;;;;;;;5116330;28;20282;-43
2023/12/22 11:52:50;;;;;;;;;;;;;;;;;;5116371;28;19928;-42
2023/12/22 11:55:16;;;;;;;;;;;;;;;;;;5116470;28;20367;-42
2023/12/22 11:57:42;;;;;;;;;;;;;;;;;;5115273;28;19955;-44
2023/12/22 12:00:09;;;;;;;;;;;;;;;;;;5115022;28;20000;-41
2023/12/22 12:02:36;;;;;;;;;;;;;;;;;;5115323;28;19928;-42
2023/12/22 12:05:03;;;;;;;;;;;;;;;;;;5115572;28;19924;-42
2023/12/22 12:07:29;;;;;;;;;;;;;;;;;;5115402;28;19924;-42
2023/12/22 12:09:55;;;;;;;;;;;;;;;;;;5115458;28;19950;-43
2023/12/22 12:12:21;;;;;;;;;;;;;;;;;;5115697;28;19992;-44
2023/12/22 12:14:47;;;;;;;;;;;;;;;;;;5115197;28;20083;-42
2023/12/22 12:17:15;;;;;;;;;;;;;;;;;;5115663;28;19924;-42
2023/12/22 12:19:41;;;;;;;;;;;;;;;;;;5115214;28;20436;-45
2023/12/22 12:22:08;;;;;;;;;;;;;;;;;;5115585;28;19981;-44
2023/12/22 12:24:35;;;;;;;;;;;;;;;;;;5115925;28;19928;-42
2023/12/22 12:27:01;;;;;;;;;;;;;;;;;;5115220;28;19923;-42
2023/12/22 12:29:28;;;;;;;;;;;;;;;;;;5115460;28;20087;-42
2023/12/22 12:31:54;;;;;;;;;;;;;;;;;;5115011;28;19932;-41
2023/12/22 12:34:20;;;;;;;;;;;;;;;;;;5114907;28;20371;-43
2023/12/22 12:36:47;;;;;;;;;;;;;;;;;;5115245;28;19942;-44
2023/12/22 12:39:13;;;;;;;;;;;;;;;;;;5114122;27;20297;-43
2023/12/22 12:41:39;;;;;;;;;;;;;;;;;;5114601;28;19927;-42
2023/12/22 12:44:06;;;;;;;;;;;;;;;;;;5113787;28;19932;-41
2023/12/22 12:46:32;;;;;;;;;;;;;;;;;;5114514;28;19923;-44
2023/12/22 12:48:58;;;;;;;;;;;;;;;;;;5114331;28;19928;-42
2023/12/22 12:51:24;;;;;;;;;;;;;;;;;;5114878;28;19986;-45
2023/12/22 12:53:52;;;;;;;;;;;;;;;;;;5114987;28;19924;-42
2023/12/22 12:56:18;;;;;;;;;;;;;;;;;;5114749;28;19931;-41
2023/12/22 12:58:44;;;;;;;;;;;;;;;;;;5114687;28;19955;-42
2023/12/22 13:01:11;;;;;;;;;;;;;;;;;;5114370;28;19973;-44
2023/12/22 13:03:43;;;;;;;;;;;;;;;;;;5114088;28;19927;-45
2023/12/22 13:06:09;;;;;;;;;;;;;;;;;;5114834;27;19927;-42
2023/12/22 13:08:35;;;;;;;;;;;;;;;;;;5114805;28;19931;-44
2023/12/22 13:11:07;;;;;;;;;;;;;;;;;;5114652;28;19923;-42
2023/12/22 13:13:34;;;;;;;;;;;;;;;;;;5114570;28;19924;-42
2023/12/22 13:16:00;;;;;;;;;;;;;;;;;;5114222;28;19923;-44
2023/12/22 13:18:26;;;;;;;;;;;;;;;;;;5114267;28;19923;-43
2023/12/22 13:20:53;;;;;;;;;;;;;;;;;;5113975;28;19924;-43
2023/12/22 13:23:19;;;;;;;;;;;;;;;;;;5113610;28;20325;-40
2023/12/22 13:25:46;;;;;;;;;;;;;;;;;;5114031;28;19993;-42
2023/12/22 13:28:12;;;;;;;;;;;;;;;;;;5114320;28;20390;-44
2023/12/22 13:30:40;;;;;;;;;;;;;;;;;;5114355;28;19996;-42
2023/12/22 13:33:07;;;;;;;;;;;;;;;;;;5113808;28;20291;-42
2023/12/22 13:35:35;;;;;;;;;;;;;;;;;;5113901;28;19950;-42
2023/12/22 13:38:04;;;;;;;;;;;;;;;;;;5114111;28;20352;-41
2023/12/22 13:40:30;;;;;;;;;;;;;;;;;;5113914;28;19924;-42
2023/12/22 13:42:57;;;;;;;;;;;;;;;;;;5113917;28;19930;-40
2023/12/22 13:45:23;;;;;;;;;;;;;;;;;;5113439;28;20363;-41
2023/12/22 13:47:49;;;;;;;;;;;;;;;;;;5114170;28;19928;-44
2023/12/22 13:50:16;;;;;;;;;;;;;;;;;;5113518;28;19924;-43
2023/12/22 13:52:43;;;;;;;;;;;;;;;;;;5113757;28;19928;-41
2023/12/22 13:55:10;;;;;;;;;;;;;;;;;;5113869;28;19930;-41
2023/12/22 13:57:36;;;;;;;;;;;;;;;;;;5113737;28;19973;-43
2023/12/22 14:00:02;;;;;;;;;;;;;;;;;;5113816;28;19969;-43
2023/12/22 14:02:28;;;;;;;;;;;;;;;;;;5113238;28;20359;-40
2023/12/22 14:04:54;;;;;;;;;;;;;;;;;;5112894;28;19924;-41
2023/12/22 14:07:20;;;;;;;;;;;;;;;;;;5113421;28;19923;-43
2023/12/22 14:09:47;;;;;;;;;;;;;;;;;;5112549;28;20416;-42
2023/12/22 14:12:13;;;;;;;;;;;;;;;;;;5113331;28;20376;-40
2023/12/22 14:14:44;;;;;;;;;;;;;;;;;;5112978;28;20067;-40
2023/12/22 14:17:11;;;;;;;;;;;;;;;;;;5113285;28;20409;-42
2023/12/22 14:19:37;;;;;;;;;;;;;;;;;;5112818;28;19924;-40
2023/12/22 14:22:03;;;;;;;;;;;;;;;;;;5112514;28;19983;-40
2023/12/22 14:24:29;;;;;;;;;;;;;;;;;;5112946;28;19976;-41
2023/12/22 14:26:56;;;;;;;;;;;;;;;;;;5113358;28;19973;-40
2023/12/22 14:29:23;;;;;;;;;;;;;;;;;;5113084;28;19946;-41
2023/12/22 14:31:49;;;;;;;;;;;;;;;;;;5112977;28;20345;-41
2023/12/22 14:34:16;;;;;;;;;;;;;;;;;;5113104;28;19924;-43
2023/12/22 14:36:43;;;;;;;;;;;;;;;;;;5113001;28;19988;-40
2023/12/22 14:39:11;;;;;;;;;;;;;;;;;;5112799;28;20324;-42
2023/12/22 14:41:37;;;;;;;;;;;;;;;;;;5113227;28;19985;-41
2023/12/22 14:44:03;;;;;;;;;;;;;;;;;;5113067;28;19985;-42
2023/12/22 14:46:30;;;;;;;;;;;;;;;;;;5112687;28;19971;-42
2023/12/22 14:48:56;;;;;;;;;;;;;;;;;;5112441;28;19923;-41
2023/12/22 14:51:22;;;;;;;;;;;;;;;;;;5112859;28;20018;-41
2023/12/22 14:53:48;;;;;;;;;;;;;;;;;;5112647;28;19928;-42
2023/12/22 14:56:14;;;;;;;;;;;;;;;;;;5112753;28;19923;-40
2023/12/22 14:58:41;;;;;;;;;;;;;;;;;;5113095;28;20371;-42
2023/12/22 15:01:07;;;;;;;;;;;;;;;;;;5112848;28;19928;-42
2023/12/22 15:03:33;;;;;;;;;;;;;;;;;;5112461;28;19932;-41
2023/12/22 15:06:00;;;;;;;;;;;;;;;;;;5112930;28;20280;-40
2023/12/22 15:08:26;;;;;;;;;;;;;;;;;;5112656;28;19923;-42
2023/12/22 15:10:52;;;;;;;;;;;;;;;;;;5113020;28;20030;-40
2023/12/22 15:13:18;;;;;;;;;;;;;;;;;;5113024;28;19930;-41
2023/12/22 15:15:44;;;;;;;;;;;;;;;;;;5115052;28;19965;-42
2023/12/22 15:18:10;;;;;;;;;;;;;;;;;;5116566;28;20212;-42
2023/12/22 15:20:38;;;;;;;;;;;;;;;;;;5116760;27;19924;-40
2023/12/22 15:23:04;;;;;;;;;;;;;;;;;;5116791;28;19938;-42
2023/12/22 15:25:30;;;;;;;;;;;;;;;;;;5116751;28;19927;-42
2023/12/22 15:27:56;;;;;;;;;;;;;;;;;;5116869;28;19947;-41
2023/12/22 15:30:22;;;;;;;;;;;;;;;;;;5116890;28;19923;-42
2023/12/22 15:32:49;;;;;;;;;;;;;;;;;;5116307;28;19946;-41
2023/12/22 15:35:15;;;;;;;;;;;;;;;;;;5115831;28;20402;-40
2023/12/22 15:37:44;;;;;;;;;;;;;;;;;;5115601;28;19973;-44
2023/12/22 15:40:10;;;;;;;;;;;;;;;;;;5115723;27;19931;-41
2023/12/22 15:42:36;;;;;;;;;;;;;;;;;;5115948;27;19931;-42
2023/12/22 15:45:03;;;;;;;;;;;;;;;;;;5115736;28;19923;-41
2023/12/22 15:47:29;;;;;;;;;;;;;;;;;;5116270;28;19924;-44
2023/12/22 15:49:56;;;;;;;;;;;;;;;;;;5116262;28;20368;-40
2023/12/22 15:52:22;;;;;;;;;;;;;;;;;;5116284;28;19928;-42
2023/12/22 15:54:48;;;;;;;;;;;;;;;;;;5115661;28;19928;-42
2023/12/22 15:57:14;;;;;;;;;;;;;;;;;;5116034;28;19955;-42
2023/12/22 15:59:40;;;;;;;;;;;;;;;;;;5115600;27;19931;-41
2023/12/22 16:02:06;;;;;;;;;;;;;;;;;;5115903;28;19923;-42
2023/12/22 16:04:33;;;;;;;;;;;;;;;;;;5116027;28;19959;-41
2023/12/22 16:06:59;;;;;;;;;;;;;;;;;;5115655;28;19928;-44
2023/12/22 16:09:25;;;;;;;;;;;;;;;;;;5115476;28;19924;-41
2023/12/22 16:11:52;;;;;;;;;;;;;;;;;;5115936;28;19968;-44
2023/12/22 16:14:18;;;;;;;;;;;;;;;;;;5115795;28;19928;-41
2023/12/22 16:16:44;;;;;;;;;;;;;;;;;;5115294;28;19939;-42
2023/12/22 16:19:10;;;;;;;;;;;;;;;;;;5115004;28;19930;-42
2023/12/22 16:21:37;;;;;;;;;;;;;;;;;;5114871;28;19924;-41
2023/12/22 16:24:03;;;;;;;;;;;;;;;;;;5115132;28;19961;-42
2023/12/22 16:26:29;;;;;;;;;;;;;;;;;;5114597;28;20369;-42
2023/12/22 16:28:55;;;;;;;;;;;;;;;;;;5114443;27;19973;-43
2023/12/22 16:31:21;;;;;;;;;;;;;;;;;;5114777;28;19966;-42
2023/12/22 16:33:50;;;;;;;;;;;;;;;;;;5114821;28;20350;-43
2023/12/22 16:36:16;;;;;;;;;;;;;;;;;;5115276;27;19931;-41
2023/12/22 16:38:42;;;;;;;;;;;;;;;;;;5114797;28;19976;-41